Time;durP1;ratioP1;P1;durP2;ratioP2;P2;SDS_P1;SDS_P2;PMS_P1;PMS_P2;Temp;Humidity;BMP_temperature;BMP_pressure;BME280_temperature;BME280_humidity;BME280_pressure;Samples;Min_cycle;Max_cycle;Signal;HPM_P1;HPM_P2
2021/11/09 00:00:42;;;;;;;28.42;11.20;;;;;;;;;;5013636;28;20482;-64
2021/11/09 00:03:13;;;;;;;25.38;10.13;;;;;;;;;;5013513;28;20045;-64
2021/11/09 00:06:07;;;;;;;26.85;11.57;;;;;;;;;;5013474;28;20097;-67
2021/11/09 00:08:35;;;;;;;25.63;11.32;;;;;;;;;;5044309;28;20024;-64
2021/11/09 00:11:01;;;;;;;27.73;10.48;;;;;;;;;;5051188;28;20017;-66
2021/11/09 00:13:27;;;;;;;27.70;10.65;;;;;;;;;;5032899;28;20029;-66
2021/11/09 00:15:54;;;;;;;26.33;10.73;;;;;;;;;;5033213;28;20102;-66
2021/11/09 00:18:20;;;;;;;29.00;10.88;;;;;;;;;;5050935;28;20031;-66
2021/11/09 00:20:46;;;;;;;31.02;11.27;;;;;;;;;;5033470;28;20024;-63
2021/11/09 00:23:13;;;;;;;25.38;9.90;;;;;;;;;;5032965;28;20033;-65
2021/11/09 00:25:40;;;;;;;23.55;11.00;;;;;;;;;;5037448;28;20027;-66
2021/11/09 00:28:07;;;;;;;27.52;10.88;;;;;;;;;;5031034;28;20079;-65
2021/11/09 00:30:33;;;;;;;25.27;11.05;;;;;;;;;;5031145;28;20033;-67
2021/11/09 00:33:00;;;;;;;24.27;10.63;;;;;;;;;;5013061;28;20034;-67
2021/11/09 00:35:28;;;;;;;27.38;10.38;;;;;;;;;;5012722;28;20025;-67
2021/11/09 00:37:54;;;;;;;28.15;10.98;;;;;;;;;;5030894;28;20028;-66
2021/11/09 00:40:23;;;;;;;30.42;11.85;;;;;;;;;;5012950;28;20022;-66
2021/11/09 00:42:49;;;;;;;30.40;10.95;;;;;;;;;;5024552;28;20033;-66
2021/11/09 00:45:15;;;;;;;39.10;12.85;;;;;;;;;;5050414;28;20076;-66
2021/11/09 00:47:42;;;;;;;26.17;10.55;;;;;;;;;;5050559;28;20024;-65
2021/11/09 00:50:09;;;;;;;26.05;11.10;;;;;;;;;;5044438;28;20026;-66
2021/11/09 00:52:35;;;;;;;24.30;11.02;;;;;;;;;;5030479;28;20112;-66
2021/11/09 00:55:01;;;;;;;30.50;10.52;;;;;;;;;;5030224;28;20085;-66
2021/11/09 00:57:27;;;;;;;28.45;10.98;;;;;;;;;;5012686;28;20022;-66
2021/11/09 00:59:53;;;;;;;28.85;11.35;;;;;;;;;;5030567;28;20026;-66
2021/11/09 01:02:19;;;;;;;30.13;10.40;;;;;;;;;;5031211;28;20383;-66
2021/11/09 01:04:46;;;;;;;31.02;9.43;;;;;;;;;;5016547;28;20516;-65
2021/11/09 01:07:11;;;;;;;34.63;10.95;;;;;;;;;;5035765;28;20458;-66
2021/11/09 01:09:37;;;;;;;29.45;9.77;;;;;;;;;;5016928;28;20044;-65
2021/11/09 01:12:04;;;;;;;26.88;9.60;;;;;;;;;;5016707;28;20476;-65
2021/11/09 01:14:30;;;;;;;26.20;10.40;;;;;;;;;;5016322;28;20025;-67
2021/11/09 01:16:57;;;;;;;26.27;9.88;;;;;;;;;;5034251;28;20026;-66
2021/11/09 01:19:23;;;;;;;28.48;10.98;;;;;;;;;;5034494;28;20095;-65
2021/11/09 01:21:51;;;;;;;27.83;10.23;;;;;;;;;;5028344;28;20094;-65
2021/11/09 01:24:18;;;;;;;26.57;11.07;;;;;;;;;;5036176;28;20032;-66
2021/11/09 01:26:45;;;;;;;31.88;10.65;;;;;;;;;;5054306;28;20021;-65
2021/11/09 01:29:12;;;;;;;25.15;9.27;;;;;;;;;;5054053;28;20024;-66
2021/11/09 01:31:38;;;;;;;30.67;10.98;;;;;;;;;;5054124;28;20471;-65
2021/11/09 01:34:04;;;;;;;27.73;10.93;;;;;;;;;;5053772;28;20463;-66
2021/11/09 01:36:30;;;;;;;27.67;10.38;;;;;;;;;;5040997;28;20029;-65
2021/11/09 01:38:57;;;;;;;30.10;11.10;;;;;;;;;;5053908;28;20544;-65
2021/11/09 01:41:23;;;;;;;29.05;11.05;;;;;;;;;;5053854;28;20550;-65
2021/11/09 01:43:50;;;;;;;33.65;12.80;;;;;;;;;;5053553;28;20033;-66
2021/11/09 01:46:16;;;;;;;28.10;11.05;;;;;;;;;;5053666;28;20035;-65
2021/11/09 01:48:42;;;;;;;28.80;10.23;;;;;;;;;;5053722;28;20096;-65
2021/11/09 01:51:10;;;;;;;24.63;9.93;;;;;;;;;;5053266;28;20074;-66
2021/11/09 01:53:37;;;;;;;28.35;11.68;;;;;;;;;;5035365;28;20056;-65
2021/11/09 01:56:06;;;;;;;30.00;10.73;;;;;;;;;;5053414;28;20032;-66
2021/11/09 01:58:32;;;;;;;32.10;11.82;;;;;;;;;;5053427;28;20075;-66
2021/11/09 02:01:03;;;;;;;33.80;12.50;;;;;;;;;;5053331;28;20029;-66
2021/11/09 02:03:29;;;;;;;35.47;13.60;;;;;;;;;;5053242;28;20052;-66
2021/11/09 02:05:56;;;;;;;32.85;12.02;;;;;;;;;;5035418;28;20071;-65
2021/11/09 02:08:24;;;;;;;32.63;11.10;;;;;;;;;;5036865;28;20064;-65
2021/11/09 02:10:51;;;;;;;31.05;12.30;;;;;;;;;;5033333;28;20083;-65
2021/11/09 02:13:18;;;;;;;30.17;11.43;;;;;;;;;;5015247;28;20033;-65
2021/11/09 02:15:44;;;;;;;32.03;11.73;;;;;;;;;;5033065;28;20508;-65
2021/11/09 02:18:12;;;;;;;32.47;11.18;;;;;;;;;;5033319;28;20030;-65
2021/11/09 02:20:38;;;;;;;32.83;11.75;;;;;;;;;;5033303;28;20029;-66
2021/11/09 02:23:05;;;;;;;29.23;11.88;;;;;;;;;;5033141;28;20444;-66
2021/11/09 02:25:32;;;;;;;30.13;12.90;;;;;;;;;;5044320;28;20412;-67
2021/11/09 02:27:58;;;;;;;31.20;11.65;;;;;;;;;;5053080;28;20351;-65
2021/11/09 02:30:27;;;;;;;39.25;14.02;;;;;;;;;;5034789;28;20071;-65
2021/11/09 02:32:53;;;;;;;26.77;11.73;;;;;;;;;;5053147;28;20104;-66
2021/11/09 02:35:22;;;;;;;30.58;12.73;;;;;;;;;;5034038;28;20029;-65
2021/11/09 02:37:48;;;;;;;;;;;;;;;;;;5053378;28;20036;-65
2021/11/09 02:40:14;;;;;;;33.97;11.70;;;;;;;;;;5052776;28;19905;-66
2021/11/09 02:42:41;;;;;;;33.85;13.48;;;;;;;;;;5051006;28;20053;-65
2021/11/09 02:45:16;;;;;;;33.25;13.82;;;;;;;;;;5052395;28;20441;-65
2021/11/09 02:47:43;;;;;;;31.08;12.43;;;;;;;;;;5034746;28;20104;-64
2021/11/09 02:50:12;;;;;;;31.90;11.88;;;;;;;;;;5032967;28;20553;-64
2021/11/09 02:52:46;;;;;;;36.83;12.13;;;;;;;;;;5052712;28;20435;-65
2021/11/09 02:55:13;;;;;;;33.95;13.13;;;;;;;;;;5052928;28;20013;-65
2021/11/09 02:57:56;;;;;;;30.55;12.88;;;;;;;;;;5052694;28;20084;-66
2021/11/09 03:03:28;;;;;;;31.15;13.10;;;;;;;;;;5008819;28;20057;-64
2021/11/09 03:09:37;;;;;;;32.38;12.38;;;;;;;;;;5003698;28;20136;-65
2021/11/09 03:11:34;;;;;;;30.73;12.13;;;;;;;;;;5023968;28;20034;-65
2021/11/09 03:14:00;;;;;;;33.42;12.82;;;;;;;;;;5031997;28;20108;-64
2021/11/09 03:16:31;;;;;;;36.15;13.00;;;;;;;;;;5032050;28;20034;-65
2021/11/09 03:44:19;;;;;;;26.13;11.27;;;;;;;;;;5031190;28;20033;-65
2021/11/09 03:46:49;;;;;;;34.67;12.32;;;;;;;;;;5033225;28;20044;-65
2021/11/09 03:49:16;;;;;;;33.17;14.60;;;;;;;;;;5033536;28;20029;-65
2021/11/09 03:51:42;;;;;;;32.40;12.60;;;;;;;;;;5045538;28;20058;-65
2021/11/09 03:54:14;;;;;;;31.13;12.50;;;;;;;;;;5031182;28;20450;-65
2021/11/09 03:56:53;;;;;;;27.85;10.88;;;;;;;;;;5013598;28;20031;-65
2021/11/09 03:59:25;;;;;;;;;;;;;;;;;;5031807;28;20074;-65
2021/11/09 04:10:28;;;;;;;32.80;12.48;;;;;;;;;;5031441;28;20034;-65
2021/11/09 04:12:36;;;;;;;30.30;11.48;;;;;;;;;;5020280;28;20030;-65
2021/11/09 04:18:43;;;;;;;33.03;13.65;;;;;;;;;;5031200;28;20029;-65
2021/11/09 04:20:38;;;;;;;40.53;12.05;;;;;;;;;;5017087;28;20600;-65
2021/11/09 04:28:56;;;;;;;34.38;11.13;;;;;;;;;;4989664;28;20034;-65
2021/11/09 05:02:50;;;;;;;41.92;13.57;;;;;;;;;;5031578;28;20092;-65
2021/11/09 05:10:47;;;;;;;31.50;12.00;;;;;;;;;;5050417;28;20082;-64
2021/11/09 05:13:13;;;;;;;40.63;15.43;;;;;;;;;;5050020;28;20051;-64
2021/11/09 05:15:39;;;;;;;32.35;12.48;;;;;;;;;;5050196;28;20033;-64
2021/11/09 05:18:06;;;;;;;32.85;14.13;;;;;;;;;;5027670;28;20022;-67
2021/11/09 05:20:32;;;;;;;32.13;13.45;;;;;;;;;;5030426;28;20033;-65
2021/11/09 05:22:58;;;;;;;36.00;13.07;;;;;;;;;;5012251;28;20108;-64
2021/11/09 05:25:25;;;;;;;34.80;13.50;;;;;;;;;;5012025;28;20044;-65
2021/11/09 05:27:51;;;;;;;32.15;13.70;;;;;;;;;;5030083;28;20013;-65
2021/11/09 05:30:18;;;;;;;38.35;14.02;;;;;;;;;;5030068;28;20071;-65
2021/11/09 05:32:44;;;;;;;33.60;13.73;;;;;;;;;;5012381;28;20033;-66
2021/11/09 05:35:10;;;;;;;37.75;13.68;;;;;;;;;;5034634;28;20100;-65
2021/11/09 05:37:43;;;;;;;45.28;14.55;;;;;;;;;;5050542;23;20077;-65
2021/11/09 05:40:10;;;;;;;34.67;14.00;;;;;;;;;;5031016;28;20028;-66
2021/11/09 05:42:36;;;;;;;36.08;12.77;;;;;;;;;;5031420;28;20026;-65
2021/11/09 05:45:02;;;;;;;39.25;12.38;;;;;;;;;;5013305;28;20014;-65
2021/11/09 05:47:28;;;;;;;37.78;12.25;;;;;;;;;;5046686;28;20040;-65
2021/11/09 05:49:54;;;;;;;35.65;13.70;;;;;;;;;;5020766;28;20469;-65
2021/11/09 05:52:21;;;;;;;32.55;13.07;;;;;;;;;;5049832;28;20052;-65
2021/11/09 05:54:47;;;;;;;36.88;13.73;;;;;;;;;;5034750;28;20021;-65
2021/11/09 05:57:13;;;;;;;33.83;13.18;;;;;;;;;;5034220;28;20108;-66
2021/11/09 05:59:40;;;;;;;35.03;15.30;;;;;;;;;;5034479;28;20071;-65
2021/11/09 06:02:06;;;;;;;36.03;12.25;;;;;;;;;;5033315;28;20029;-65
2021/11/09 06:04:32;;;;;;;32.75;14.23;;;;;;;;;;5033070;28;20029;-65
2021/11/09 06:06:58;;;;;;;35.58;14.32;;;;;;;;;;5017762;28;20393;-64
2021/11/09 06:09:24;;;;;;;33.42;13.13;;;;;;;;;;5034927;28;20025;-65
2021/11/09 06:11:50;;;;;;;35.53;13.43;;;;;;;;;;5054505;28;20066;-64
2021/11/09 06:14:16;;;;;;;36.67;13.65;;;;;;;;;;5035835;28;20020;-64
2021/11/09 06:16:43;;;;;;;42.42;15.63;;;;;;;;;;5053998;28;20131;-64
2021/11/09 06:19:08;;;;;;;36.63;14.93;;;;;;;;;;5053814;28;20025;-65
2021/11/09 06:21:35;;;;;;;32.45;14.75;;;;;;;;;;5035784;28;20137;-63
2021/11/09 06:24:01;;;;;;;38.88;13.95;;;;;;;;;;5017592;28;20040;-65
2021/11/09 06:26:27;;;;;;;31.05;12.57;;;;;;;;;;5016018;28;20021;-65
2021/11/09 06:28:57;;;;;;;39.67;14.85;;;;;;;;;;5034013;28;20389;-65
2021/11/09 06:31:23;;;;;;;35.25;15.13;;;;;;;;;;5016102;28;20401;-65
2021/11/09 06:33:49;;;;;;;34.83;13.93;;;;;;;;;;5017407;28;20079;-65
2021/11/09 06:36:15;;;;;;;33.47;13.90;;;;;;;;;;5042938;28;20041;-64
2021/11/09 06:38:42;;;;;;;34.30;14.18;;;;;;;;;;5035845;28;20032;-65
2021/11/09 06:41:08;;;;;;;34.42;14.02;;;;;;;;;;5036177;28;20420;-65
2021/11/09 06:43:34;;;;;;;36.25;14.27;;;;;;;;;;5053827;28;20366;-64
2021/11/09 06:46:00;;;;;;;29.90;12.10;;;;;;;;;;5053369;28;20032;-64
2021/11/09 06:48:26;;;;;;;37.42;14.15;;;;;;;;;;5052564;28;20025;-65
2021/11/09 06:50:53;;;;;;;36.63;14.80;;;;;;;;;;5017578;28;20049;-65
2021/11/09 06:53:20;;;;;;;38.88;15.27;;;;;;;;;;5052634;28;20028;-65
2021/11/09 06:55:46;;;;;;;32.22;13.98;;;;;;;;;;5035048;28;20048;-64
2021/11/09 06:58:12;;;;;;;33.20;14.15;;;;;;;;;;5053524;28;20025;-66
2021/11/09 07:00:38;;;;;;;30.77;13.10;;;;;;;;;;5034166;28;20495;-65
2021/11/09 07:03:04;;;;;;;34.45;14.85;;;;;;;;;;5034751;28;20418;-65
2021/11/09 07:05:30;;;;;;;33.40;13.40;;;;;;;;;;5052334;28;20056;-65
2021/11/09 07:07:56;;;;;;;32.72;14.38;;;;;;;;;;5034391;28;20029;-66
2021/11/09 07:10:23;;;;;;;45.75;13.70;;;;;;;;;;5017070;28;20091;-65
2021/11/09 07:12:49;;;;;;;33.13;14.57;;;;;;;;;;5032354;28;20026;-64
2021/11/09 07:15:17;;;;;;;30.15;12.68;;;;;;;;;;5014213;28;20028;-65
2021/11/09 07:17:43;;;;;;;34.03;13.57;;;;;;;;;;5032317;28;20017;-65
2021/11/09 07:20:10;;;;;;;37.63;12.98;;;;;;;;;;5014518;28;20272;-66
2021/11/09 07:22:37;;;;;;;32.83;13.63;;;;;;;;;;5031982;28;20107;-65
2021/11/09 07:25:03;;;;;;;32.17;14.43;;;;;;;;;;5030348;28;20029;-65
2021/11/09 07:27:30;;;;;;;36.30;13.50;;;;;;;;;;5017710;28;20029;-65
2021/11/09 07:29:56;;;;;;;29.00;12.85;;;;;;;;;;5031885;28;20059;-64
2021/11/09 07:32:24;;;;;;;38.83;12.65;;;;;;;;;;5021574;28;20025;-65
2021/11/09 07:34:50;;;;;;;32.70;15.75;;;;;;;;;;5051905;28;20107;-65
2021/11/09 07:37:17;;;;;;;33.58;15.30;;;;;;;;;;5052084;28;20044;-66
2021/11/09 07:39:43;;;;;;;38.83;14.95;;;;;;;;;;5052412;28;20044;-65
2021/11/09 07:42:09;;;;;;;39.45;14.45;;;;;;;;;;5051761;28;20155;-64
2021/11/09 07:44:36;;;;;;;38.78;16.10;;;;;;;;;;5018966;28;20147;-65
2021/11/09 07:47:02;;;;;;;38.58;15.73;;;;;;;;;;5031632;28;20032;-64
2021/11/09 07:49:28;;;;;;;32.40;13.98;;;;;;;;;;5013816;28;20030;-67
2021/11/09 07:51:54;;;;;;;46.15;17.25;;;;;;;;;;5031876;28;20017;-68
2021/11/09 07:54:27;;;;;;;33.13;13.90;;;;;;;;;;5031638;28;20022;-68
2021/11/09 07:57:07;;;;;;;36.28;15.15;;;;;;;;;;5014021;28;20017;-68
2021/11/09 07:59:49;;;;;;;40.30;14.93;;;;;;;;;;5031976;28;20080;-67
2021/11/09 08:02:44;;;;;;;28.67;13.25;;;;;;;;;;5046499;28;20040;-68
2021/11/09 08:05:11;;;;;;;31.83;14.10;;;;;;;;;;5033769;28;20353;-68
2021/11/09 08:07:48;;;;;;;36.13;13.07;;;;;;;;;;5010799;28;20474;-69
2021/11/09 08:10:14;;;;;;;34.57;14.17;;;;;;;;;;5012724;28;20032;-69
2021/11/09 08:12:40;;;;;;;31.38;13.93;;;;;;;;;;5012338;28;20026;-68
2021/11/09 08:15:06;;;;;;;33.45;13.52;;;;;;;;;;5016905;28;20075;-68
2021/11/09 08:17:32;;;;;;;35.03;13.95;;;;;;;;;;5030312;28;20041;-69
2021/11/09 08:19:58;;;;;;;38.35;13.77;;;;;;;;;;5031682;28;20021;-67
2021/11/09 08:22:25;;;;;;;30.25;12.68;;;;;;;;;;5013230;28;20025;-69
2021/11/09 08:24:51;;;;;;;34.55;14.45;;;;;;;;;;5031691;28;20036;-67
2021/11/09 08:27:17;;;;;;;32.72;14.00;;;;;;;;;;5032038;28;20022;-68
2021/11/09 08:29:49;;;;;;;38.08;14.48;;;;;;;;;;5014349;28;20546;-68
2021/11/09 08:32:16;;;;;;;32.70;13.57;;;;;;;;;;5014856;28;20103;-69
2021/11/09 08:34:42;;;;;;;29.40;13.05;;;;;;;;;;5031525;28;20026;-69
2021/11/09 08:37:09;;;;;;;32.83;13.73;;;;;;;;;;5013978;28;20059;-65
2021/11/09 08:39:40;;;;;;;29.10;12.75;;;;;;;;;;5014207;28;20025;-69
2021/11/09 08:44:40;;;;;;;29.17;11.88;;;;;;;;;;5051567;28;20106;-68
2021/11/09 08:47:07;;;;;;;32.55;12.48;;;;;;;;;;5034016;28;20112;-69
2021/11/09 08:49:33;;;;;;;32.30;13.48;;;;;;;;;;5051716;28;20048;-69
2021/11/09 08:52:03;;;;;;;31.58;11.93;;;;;;;;;;5051923;28;20040;-68
2021/11/09 08:54:36;;;;;;;29.65;14.00;;;;;;;;;;5051497;28;20032;-70
2021/11/09 08:57:10;;;;;;;33.63;12.77;;;;;;;;;;5050730;28;20025;-69
2021/11/09 09:05:06;;;;;;;31.08;11.93;;;;;;;;;;5040521;28;20444;-70
2021/11/09 09:07:33;;;;;;;34.63;13.88;;;;;;;;;;5052366;28;20487;-69
2021/11/09 09:09:59;;;;;;;27.88;11.77;;;;;;;;;;5052333;28;20546;-69
2021/11/09 09:12:27;;;;;;;29.70;14.00;;;;;;;;;;5034523;28;20021;-69
2021/11/09 09:14:54;;;;;;;29.02;11.95;;;;;;;;;;5033453;28;20051;-68
2021/11/09 09:17:21;;;;;;;26.17;14.52;;;;;;;;;;5033263;28;20033;-67
2021/11/09 09:19:54;;;;;;;32.22;13.23;;;;;;;;;;5031318;28;20108;-56
2021/11/09 09:22:45;;;;;;;33.03;15.02;;;;;;;;;;5030926;28;20026;-66
2021/11/09 09:33:02;;;;;;;34.90;13.73;;;;;;;;;;5035273;28;20112;-64
2021/11/09 09:57:25;;;;;;;28.40;12.50;;;;;;;;;;5054366;28;20033;-65
2021/11/09 09:59:54;;;;;;;29.13;14.65;;;;;;;;;;5052210;28;20106;-65
2021/11/09 10:02:25;;;;;;;27.17;13.38;;;;;;;;;;5036197;28;20499;-65
2021/11/09 10:04:53;;;;;;;28.58;13.05;;;;;;;;;;5035879;28;20029;-65
2021/11/09 10:07:30;;;;;;;30.93;13.80;;;;;;;;;;5048500;28;20439;-66
2021/11/09 10:09:57;;;;;;;26.92;13.18;;;;;;;;;;5034107;28;20389;-65
2021/11/09 10:12:28;;;;;;;25.23;13.32;;;;;;;;;;5016776;28;20516;-66
2021/11/09 10:14:57;;;;;;;25.52;12.27;;;;;;;;;;5034406;28;20037;-65
2021/11/09 10:17:25;;;;;;;32.60;15.43;;;;;;;;;;5016155;28;20389;-64
2021/11/09 10:19:51;;;;;;;25.90;11.98;;;;;;;;;;5016141;28;20037;-64
2021/11/09 10:22:19;;;;;;;28.27;12.98;;;;;;;;;;5016680;28;20029;-64
2021/11/09 10:24:50;;;;;;;30.17;12.73;;;;;;;;;;5016125;28;20033;-64
2021/11/09 10:27:16;;;;;;;24.63;12.57;;;;;;;;;;5033918;28;20025;-65
2021/11/09 10:29:44;;;;;;;25.27;12.80;;;;;;;;;;5015507;28;20021;-66
2021/11/09 10:32:15;;;;;;;23.88;12.45;;;;;;;;;;5033360;28;20049;-65
2021/11/09 10:34:44;;;;;;;24.90;14.05;;;;;;;;;;5015281;28;20029;-65
2021/11/09 10:37:22;;;;;;;20.83;12.18;;;;;;;;;;5015897;28;20061;-66
2021/11/09 10:39:49;;;;;;;22.38;12.88;;;;;;;;;;5053764;28;20099;-66
2021/11/09 10:42:17;;;;;;;20.70;11.90;;;;;;;;;;4996162;28;20250;-65
2021/11/09 10:44:44;;;;;;;20.10;12.82;;;;;;;;;;5013127;28;20022;-65
2021/11/09 10:47:19;;;;;;;23.25;12.95;;;;;;;;;;4995754;28;20030;-64
2021/11/09 10:49:50;;;;;;;23.67;12.82;;;;;;;;;;5006147;28;20024;-65
2021/11/09 10:52:17;;;;;;;24.35;12.65;;;;;;;;;;5016296;28;20064;-65
2021/11/09 10:54:50;;;;;;;21.33;12.85;;;;;;;;;;5033722;28;20018;-66
2021/11/09 10:57:27;;;;;;;23.33;13.90;;;;;;;;;;5034943;28;20029;-66
2021/11/09 11:05:22;;;;;;;25.17;13.15;;;;;;;;;;5033783;28;20041;-65
2021/11/09 11:08:00;;;;;;;25.35;15.13;;;;;;;;;;5034201;28;20017;-66
2021/11/09 11:10:32;;;;;;;25.17;13.87;;;;;;;;;;5016887;28;20021;-67
2021/11/09 11:13:16;;;;;;;23.85;14.07;;;;;;;;;;5018584;28;20268;-66
2021/11/09 11:16:01;;;;;;;26.13;14.43;;;;;;;;;;5035264;28;20013;-65
2021/11/09 11:18:32;;;;;;;24.20;13.40;;;;;;;;;;5035718;28;20028;-66
2021/11/09 11:20:58;;;;;;;26.60;13.40;;;;;;;;;;5035537;28;20052;-66
2021/11/09 11:23:25;;;;;;;26.13;13.90;;;;;;;;;;5021160;28;20457;-65
2021/11/09 11:25:51;;;;;;;24.75;14.60;;;;;;;;;;5015344;28;20018;-65
2021/11/09 11:28:17;;;;;;;22.73;13.90;;;;;;;;;;5033542;28;20029;-66
2021/11/09 11:30:43;;;;;;;20.50;12.80;;;;;;;;;;5015547;28;20036;-65
2021/11/09 11:33:09;;;;;;;22.17;13.25;;;;;;;;;;5033425;28;20036;-64
2021/11/09 11:35:35;;;;;;;19.60;12.40;;;;;;;;;;5015133;28;20041;-64
2021/11/09 11:38:02;;;;;;;21.42;13.68;;;;;;;;;;5018700;23;20204;-65
2021/11/09 11:40:29;;;;;;;23.52;13.40;;;;;;;;;;5011365;28;20030;-67
2021/11/09 11:42:55;;;;;;;22.13;13.38;;;;;;;;;;5011897;28;20026;-67
2021/11/09 11:45:21;;;;;;;20.38;13.45;;;;;;;;;;5013197;28;20033;-67
2021/11/09 11:48:04;;;;;;;21.63;12.63;;;;;;;;;;5002515;28;20049;-67
2021/11/09 11:50:38;;;;;;;22.52;12.68;;;;;;;;;;5001552;28;20030;-69
2021/11/09 11:53:04;;;;;;;20.23;12.60;;;;;;;;;;4994030;28;20046;-67
2021/11/09 11:55:30;;;;;;;20.05;12.50;;;;;;;;;;4976030;28;20042;-67
2021/11/09 11:58:05;;;;;;;20.60;13.10;;;;;;;;;;4975378;28;20030;-68
2021/11/09 12:00:38;;;;;;;20.13;12.70;;;;;;;;;;4975240;28;20703;-66
2021/11/09 12:03:24;;;;;;;20.35;12.93;;;;;;;;;;4975729;28;20393;-68
2021/11/09 12:05:52;;;;;;;22.10;12.07;;;;;;;;;;4979778;28;20014;-65
2021/11/09 12:08:34;;;;;;;22.65;12.32;;;;;;;;;;4994329;28;20057;-68
2021/11/09 12:11:00;;;;;;;20.92;12.32;;;;;;;;;;4992738;28;20015;-69
2021/11/09 12:13:26;;;;;;;21.38;11.68;;;;;;;;;;4992278;28;20034;-67
2021/11/09 12:16:00;;;;;;;21.55;11.68;;;;;;;;;;4993047;28;20037;-66
2021/11/09 12:18:29;;;;;;;19.75;11.63;;;;;;;;;;4992429;28;20076;-68
2021/11/09 12:20:56;;;;;;;20.70;12.02;;;;;;;;;;4992468;28;20129;-68
2021/11/09 12:23:22;;;;;;;19.45;12.10;;;;;;;;;;4993507;28;20033;-67
2021/11/09 12:25:49;;;;;;;21.30;12.27;;;18.80;99.90;;;;;;4992834;28;20149;-67
2021/11/09 12:28:16;;;;;;;18.45;11.52;;;17.00;99.90;;;;;;4992984;28;20111;-67
2021/11/09 12:30:44;;;;;;;20.52;11.90;;;17.20;99.90;;;;;;4992746;28;20030;-68
2021/11/09 12:33:16;;;;;;;21.10;12.27;;;16.90;99.90;;;;;;4992342;28;20022;-65
2021/11/09 12:35:43;;;;;;;22.52;12.90;;;;;;;;;;4975160;28;20034;-66
2021/11/09 12:38:13;;;;;;;18.80;11.85;;;;;;;;;;4992369;28;20057;-69
2021/11/09 12:40:39;;;;;;;18.95;11.57;;;;;;;;;;4975218;28;20060;-69
2021/11/09 12:43:07;;;;;;;23.25;11.85;;;;;;;;;;4992475;28;20062;-67
2021/11/09 12:45:33;;;;;;;22.42;12.27;;;;;;;;;;4992331;28;20022;-68
2021/11/09 12:48:04;;;;;;;22.40;12.38;;;;;;;;;;4974679;28;20702;-67
2021/11/09 12:50:30;;;;;;;22.67;12.80;;;;;;;;;;4990443;28;20103;-67
2021/11/09 12:53:04;;;;;;;19.35;12.10;;;;;;;;;;5012889;28;20102;-68
2021/11/09 12:55:30;;;;;;;21.25;12.95;;;;;;;;;;5011868;28;20429;-67
2021/11/09 12:58:10;;;;;;;19.98;13.40;;;;;;;;;;4992705;28;20022;-66
2021/11/09 13:00:40;;;;;;;19.20;12.88;;;;;;;;;;5011613;28;20022;-67
2021/11/09 13:03:21;;;;;;;20.02;12.60;;;;;;;;;;4993515;28;20029;-66
2021/11/09 13:06:01;;;;;;;22.63;12.13;;;;;;;;;;4994311;28;20394;-67
2021/11/09 13:08:39;;;;;;;18.98;12.05;;;;;;;;;;5012006;28;20511;-68
2021/11/09 13:11:05;;;;;;;16.95;11.52;;;;;;;;;;4993939;28;20343;-68
2021/11/09 13:13:31;;;;;;;18.75;12.68;;;;;;;;;;5011524;28;20040;-68
2021/11/09 13:15:58;;;;;;;17.50;11.63;;;;;;;;;;4991477;28;20562;-68
2021/11/09 13:18:31;;;;;;;18.00;12.15;;;;;;;;;;4992372;28;20027;-67
2021/11/09 13:21:05;;;;;;;18.73;11.32;;;;;;;;;;4975338;28;20031;-68
2021/11/09 13:23:31;;;;;;;17.65;11.70;;;;;;;;;;4975433;28;20376;-67
2021/11/09 13:25:59;;;;;;;20.85;12.57;;;;;;;;;;4974246;28;20018;-69
2021/11/09 13:28:38;;;;;;;17.60;12.00;;;;;;;;;;4992091;28;20030;-69
2021/11/09 13:31:07;;;;;;;18.48;12.05;;;;;;;;;;4993960;28;20034;-68
2021/11/09 13:33:36;;;;;;;18.58;12.35;;;;;;;;;;4974680;28;20030;-67
2021/11/09 13:36:03;;;;;;;18.63;11.60;;;;;;;;;;4650715;28;9999659;-69
2021/11/09 13:38:36;;;;;;;20.27;11.80;;;;;;;;;;5008136;28;20049;-68
2021/11/09 13:41:05;;;;;;;19.02;11.80;;;;;;;;;;5008759;28;20123;-68
2021/11/09 13:43:41;;;;;;;19.20;12.25;;;;;;;;;;5008021;28;20505;-66
2021/11/09 13:46:11;;;;;;;17.35;11.75;;;;;;;;;;5008205;28;20057;-68
2021/11/09 13:48:39;;;;;;;18.25;11.43;;;;;;;;;;4983936;28;20030;-68
2021/11/09 13:51:06;;;;;;;19.63;11.73;;;;;;;;;;4651788;28;10000254;-69
2021/11/09 13:53:38;;;;;;;18.13;11.87;;;;;;;;;;4651219;28;9999917;-68
2021/11/09 13:56:08;;;;;;;19.38;11.60;;;;;;;;;;4991396;28;20478;-69
2021/11/09 13:58:36;;;;;;;17.80;11.43;;;;;;;;;;4991265;28;20035;-69
2021/11/09 14:01:02;;;;;;;18.98;11.90;;;;;;;;;;4973954;28;20057;-69
2021/11/09 14:16:38;;;;;;;23.67;12.40;;;;;;;;;;5003628;28;20034;-69
2021/11/09 14:19:12;;;;;;;16.73;11.48;;;;;;;;;;4986420;28;20029;-70
2021/11/09 14:21:40;;;;;;;17.45;11.40;;;;;;;;;;5000419;28;20026;-69
2021/11/09 14:24:14;;;;;;;18.92;11.55;;;;;;;;;;4994694;28;20034;-69
2021/11/09 14:26:41;;;;;;;19.08;11.68;;;;;;;;;;4995979;28;20022;-67
2021/11/09 14:29:23;;;;;;;19.70;11.87;;;;;;;;;;5014643;28;20038;-68
2021/11/09 14:32:06;;;;;;;18.25;11.48;;;;;;;;;;4996670;28;20273;-68
2021/11/09 14:34:33;;;;;;;19.15;11.52;;;;;;;;;;5014071;28;20021;-67
2021/11/09 14:37:07;;;;;;;20.25;11.95;;;;;;;;;;5013979;28;20536;-68
2021/11/09 14:39:38;;;;;;;19.20;11.52;;;;;;;;;;4996447;28;20056;-68
2021/11/09 14:44:33;;;;;;;;;;;;;;;;;;4994758;28;20031;-68
2021/11/09 14:46:59;;;;;;;16.60;11.00;;;;;;;;;;4994406;28;19917;-68
2021/11/09 14:49:36;;;;;;;19.58;11.50;;;;;;;;;;4993186;28;20406;-69
2021/11/09 14:52:08;;;;;;;17.95;11.57;;;;;;;;;;4992945;28;20058;-70
2021/11/09 14:54:35;;;;;;;18.15;11.20;;;;;;;;;;4994473;28;20022;-68
2021/11/09 14:57:07;;;;;;;18.80;11.50;;;;;;;;;;4995269;28;20072;-69
2021/11/09 14:59:34;;;;;;;17.40;11.15;;;;;;;;;;4994258;28;20096;-69
2021/11/09 15:02:02;;;;;;;19.10;11.35;;;;;;;;;;4977262;28;20595;-69
2021/11/09 15:10:11;;;;;;;18.67;11.25;;;;;;;;;;5010588;28;20026;-71
2021/11/09 15:27:18;;;;;;;21.60;11.88;;;;;;;;;;5003276;28;20025;-67
2021/11/09 15:32:10;;;;;;;23.48;11.18;;;;;;;;;;4993412;28;20022;-66
2021/11/09 15:39:51;;;;;;;19.50;11.02;;;;;;;;;;5013625;28;20065;-68
2021/11/09 15:42:17;;;;;;;21.23;11.77;;;;;;;;;;4995339;28;20056;-69
2021/11/09 15:44:43;;;;;;;19.33;11.82;;;;;;;;;;4996680;28;20030;-68
2021/11/09 15:47:10;;;;;;;19.15;11.70;;;;;;;;;;4993624;28;20026;-67
2021/11/09 15:49:37;;;;;;;20.35;12.50;;;;;;;;;;5003892;28;20022;-69
2021/11/09 15:52:03;;;;;;;19.40;12.00;;;;;;;;;;4996103;28;20026;-69
2021/11/09 15:54:29;;;;;;;21.08;12.13;;;;;;;;;;5012142;28;20494;-69
2021/11/09 15:56:55;;;;;;;20.92;11.75;;;;;;;;;;4976674;28;20406;-70
2021/11/09 15:59:21;;;;;;;17.88;11.45;;;;;;;;;;4993993;28;20026;-68
2021/11/09 16:01:48;;;;;;;24.15;11.85;;;;;;;;;;4977187;28;20033;-69
2021/11/09 16:04:14;;;;;;;20.75;12.55;;;;;;;;;;4993580;28;20027;-68
2021/11/09 16:06:42;;;;;;;24.73;13.35;;;;;;;;;;4976667;28;20026;-69
2021/11/09 16:09:10;;;;;;;22.15;11.65;;;;;;;;;;4993609;28;20018;-70
2021/11/09 16:11:37;;;;;;;19.73;11.43;;;;;;;;;;5005253;28;20026;-69
2021/11/09 16:14:05;;;;;;;21.20;11.68;;;;;;;;;;4995402;28;20030;-68
2021/11/09 16:16:32;;;;;;;21.58;13.15;;;;;;;;;;5012244;28;20546;-70
2021/11/09 16:18:58;;;;;;;18.60;12.00;;;;;;;;;;4991192;28;20124;-66
2021/11/09 16:21:24;;;;;;;20.48;11.35;;;;;;;;;;5013112;28;20061;-69
2021/11/09 16:23:50;;;;;;;26.80;11.30;;;;;;;;;;4993442;28;20402;-68
2021/11/09 16:26:17;;;;;;;23.45;11.60;;;;;;;;;;5010237;28;20043;-69
2021/11/09 16:28:49;;;;;;;21.60;11.77;;;;;;;;;;4993663;28;20525;-71
2021/11/09 16:31:16;;;;;;;21.25;11.43;;;;;;;;;;4993546;28;20038;-71
2021/11/09 16:33:42;;;;;;;19.77;11.63;;;;;;;;;;5005794;28;20510;-67
2021/11/09 16:36:15;;;;;;;19.63;11.13;;;;;;;;;;5008347;28;20037;-70
2021/11/09 16:38:46;;;;;;;19.48;10.88;;;;;;;;;;4320448;28;10000605;-69
2021/11/09 16:41:18;;;;;;;20.65;11.10;;;;;;;;;;4991552;28;20107;-66
2021/11/09 16:46:29;;;;;;;20.40;12.52;;;;;;;;;;5009317;28;20022;-69
2021/11/09 16:49:06;;;;;;;20.85;11.38;;;;;;;;;;5009132;28;20022;-69
2021/11/09 16:51:53;;;;;;;20.00;11.50;;;;;;;;;;4991361;28;20192;-69
2021/11/09 16:57:19;;;;;;;29.00;13.05;;;;;;;;;;4995640;28;20026;-67
2021/11/09 17:00:00;;;;;;;19.98;11.15;;;;;;;;;;5001462;28;20040;-68
2021/11/09 17:13:52;;;;;;;20.35;10.93;;;;;;;;;;5009486;28;20040;-68
2021/11/09 18:12:24;;;;;;;24.80;12.13;;;;;;;;;;5055554;28;20040;-66
2021/11/09 18:13:44;;;;;;;23.55;11.30;;;;;;;;;;4973609;28;20027;-66
2021/11/09 18:21:35;;;;;;;22.67;12.15;;;;;;;;;;5054707;28;20509;-67
2021/11/09 18:24:01;;;;;;;19.95;11.68;;;;;;;;;;5035660;28;20431;-65
2021/11/09 18:26:27;;;;;;;19.92;11.15;;;;;;;;;;5054721;28;20060;-66
2021/11/09 18:28:53;;;;;;;23.15;11.35;;;;;;;;;;5054479;28;20036;-65
2021/11/09 18:31:20;;;;;;;23.45;11.73;;;;;;;;;;5036342;28;20036;-66
2021/11/09 18:33:46;;;;;;;21.40;11.35;;;;;;;;;;5054006;28;20597;-66